Time,TemperatureF,DewpointF,PressureIn,WindDirection,WindDirectionDegrees,WindSpeedMPH,WindSpeedGustMPH,Humidity,HourlyPrecipIn,Conditions,Clouds,dailyrainin,SoftwareType,DateUTC
2013-05-13 00:09:00,70.5,66.8,29.87,West,270,0.0,-999.0,88,-99.99,,,0.00,Acu-Link.com,2013-05-13 04:09:00,
2013-05-13 00:24:00,70.0,66.3,29.86,NW,315,0.0,-999.0,88,-99.99,,,0.00,Acu-Link.com,2013-05-13 04:24:00,
2013-05-13 00:40:00,69.8,66.1,29.86,WNW,292,0.0,-999.0,88,-99.99,,,0.00,Acu-Link.com,2013-05-13 04:40:00,
2013-05-13 00:56:00,69.6,65.9,29.85,West,270,0.0,-999.0,88,-99.99,,,0.00,Acu-Link.com,2013-05-13 04:56:00,
2013-05-13 01:11:00,69.4,65.7,29.86,West,270,0.0,-999.0,88,-99.99,,,0.00,Acu-Link.com,2013-05-13 05:11:00,
2013-05-13 01:26:00,69.1,65.4,29.84,South,180,0.0,-999.0,88,-99.99,,,0.00,Acu-Link.com,2013-05-13 05:26:00,
2013-05-13 01:41:00,68.5,64.8,29.85,West,270,0.0,-999.0,88,-99.99,,,0.00,Acu-Link.com,2013-05-13 05:41:00,
2013-05-13 01:57:00,68.2,65.1,29.83,West,270,0.0,-999.0,90,-99.99,,,0.00,Acu-Link.com,2013-05-13 05:57:00,
2013-05-13 02:12:00,68.0,65.0,29.84,WNW,292,0.0,-999.0,90,-99.99,,,0.00,Acu-Link.com,2013-05-13 06:12:00,
2013-05-13 02:27:00,68.2,64.8,29.83,WNW,292,1.7,-999.0,89,-99.99,,,0.00,Acu-Link.com,2013-05-13 06:27:00,
2013-05-13 02:42:00,68.2,64.5,29.83,WSW,247,0.0,-999.0,88,-99.99,,,0.00,Acu-Link.com,2013-05-13 06:42:00,
2013-05-13 02:58:00,68.0,64.3,29.83,West,270,1.1,-999.0,88,-99.99,,,0.00,Acu-Link.com,2013-05-13 06:58:00,
2013-05-13 03:13:00,68.2,64.5,29.84,West,270,1.7,-999.0,88,-99.99,,,0.00,Acu-Link.com,2013-05-13 07:13:00,
2013-05-13 03:28:00,68.2,64.2,29.83,NW,315,0.0,-999.0,87,-99.99,,,0.00,Acu-Link.com,2013-05-13 07:28:00,
2013-05-13 03:44:00,68.2,64.2,29.83,WSW,247,1.7,-999.0,87,-99.99,,,0.00,Acu-Link.com,2013-05-13 07:44:00,
2013-05-13 03:59:00,67.8,64.1,29.83,West,270,1.1,-999.0,88,-99.99,,,0.00,Acu-Link.com,2013-05-13 07:59:00,
2013-05-13 04:14:00,67.8,64.1,29.84,WSW,247,2.7,-999.0,88,-99.99,,,0.00,Acu-Link.com,2013-05-13 08:14:00,
2013-05-13 04:30:00,67.8,64.1,29.84,West,270,3.2,-999.0,88,-99.99,,,0.00,Acu-Link.com,2013-05-13 08:30:00,
2013-05-13 04:45:00,67.8,64.1,29.84,West,270,1.1,-999.0,88,-99.99,,,0.00,Acu-Link.com,2013-05-13 08:45:00,
2013-05-13 05:00:00,68.0,64.3,29.84,West,270,1.7,-999.0,88,-99.99,,,0.00,Acu-Link.com,2013-05-13 09:00:00,
2013-05-13 05:15:00,67.8,64.4,29.84,West,270,2.2,-999.0,89,-99.99,,,0.00,Acu-Link.com,2013-05-13 09:15:00,
2013-05-13 05:30:00,67.8,64.4,29.84,West,270,0.0,-999.0,89,-99.99,,,0.00,Acu-Link.com,2013-05-13 09:30:00,
2013-05-13 05:45:00,67.8,64.4,29.84,West,270,0.0,-999.0,89,-99.99,,,0.00,Acu-Link.com,2013-05-13 09:45:00,
2013-05-13 06:01:00,67.6,64.2,29.84,West,270,0.0,-999.0,89,-99.99,,,0.00,Acu-Link.com,2013-05-13 10:01:00,
2013-05-13 06:16:00,67.3,64.3,29.84,WSW,247,0.0,-999.0,90,-99.99,,,0.00,Acu-Link.com,2013-05-13 10:16:00,
2013-05-13 06:31:00,67.3,64.6,29.85,WNW,292,0.0,-999.0,91,-99.99,,,0.00,Acu-Link.com,2013-05-13 10:31:00,
2013-05-13 06:47:00,67.3,64.6,29.85,West,270,0.0,-999.0,91,-99.99,,,0.00,Acu-Link.com,2013-05-13 10:47:00,
2013-05-13 07:02:00,67.3,64.6,29.86,WNW,292,1.7,-999.0,91,-99.99,,,0.00,Acu-Link.com,2013-05-13 11:02:00,
2013-05-13 07:18:00,68.0,65.3,29.87,SW,225,2.2,-999.0,91,-99.99,,,0.00,Acu-Link.com,2013-05-13 11:18:00,
2013-05-13 07:33:00,68.9,65.8,29.86,WNW,292,0.0,-999.0,90,-99.99,,,0.00,Acu-Link.com,2013-05-13 11:33:00,
2013-05-13 07:48:00,70.0,66.6,29.86,WNW,292,1.7,-999.0,89,-99.99,,,0.00,Acu-Link.com,2013-05-13 11:48:00,
2013-05-13 08:03:00,70.9,66.5,29.86,West,270,0.0,-999.0,86,-99.99,,,0.00,Acu-Link.com,2013-05-13 12:03:00,
2013-05-13 08:19:00,71.4,66.3,29.87,WSW,247,0.0,-999.0,84,-99.99,,,0.00,Acu-Link.com,2013-05-13 12:19:00,
2013-05-13 08:34:00,71.8,66.3,29.88,West,270,2.2,-999.0,83,-99.99,,,0.00,Acu-Link.com,2013-05-13 12:34:00,
2013-05-13 08:49:00,72.5,66.0,29.89,West,270,2.7,-999.0,80,-99.99,,,0.00,Acu-Link.com,2013-05-13 12:49:00,
2013-05-13 09:05:00,72.7,66.2,29.90,NW,315,0.0,-999.0,80,-99.99,,,0.00,Acu-Link.com,2013-05-13 13:05:00,
2013-05-13 09:20:00,72.0,65.8,29.90,West,270,1.1,-999.0,81,-99.99,,,0.00,Acu-Link.com,2013-05-13 13:20:00,
2013-05-13 09:35:00,71.1,65.0,29.91,WSW,247,1.1,-999.0,81,-99.99,,,0.00,Acu-Link.com,2013-05-13 13:35:00,
2013-05-13 09:51:00,71.1,65.0,29.91,ESE,112,1.1,-999.0,81,-99.99,,,0.00,Acu-Link.com,2013-05-13 13:51:00,
2013-05-13 10:06:00,71.2,65.1,29.92,West,270,1.7,-999.0,81,-99.99,,,0.00,Acu-Link.com,2013-05-13 14:06:00,
2013-05-13 10:21:00,73.4,66.1,29.93,West,270,2.2,-999.0,78,-99.99,,,0.00,Acu-Link.com,2013-05-13 14:21:00,
2013-05-13 10:36:00,74.7,66.6,29.94,North,0,3.2,-999.0,76,-99.99,,,0.00,Acu-Link.com,2013-05-13 14:36:00,
2013-05-13 10:51:00,75.2,66.7,29.92,SSE,157,1.1,-999.0,75,-99.99,,,0.00,Acu-Link.com,2013-05-13 14:51:00,
2013-05-13 11:07:00,74.1,66.0,29.93,NNW,337,2.7,-999.0,76,-99.99,,,0.00,Acu-Link.com,2013-05-13 15:07:00,
2013-05-13 11:22:00,74.7,66.2,29.95,North,0,1.7,-999.0,75,-99.99,,,0.00,Acu-Link.com,2013-05-13 15:22:00,
2013-05-13 11:37:00,74.7,66.2,29.94,WNW,292,0.0,-999.0,75,-99.99,,,0.00,Acu-Link.com,2013-05-13 15:37:00,
2013-05-13 11:53:00,76.3,66.6,29.95,WNW,292,3.2,-999.0,72,-99.99,,,0.00,Acu-Link.com,2013-05-13 15:53:00,
2013-05-13 12:08:00,79.0,67.5,29.95,SSE,157,0.0,-999.0,68,-99.99,,,0.00,Acu-Link.com,2013-05-13 16:08:00,
2013-05-13 12:24:00,80.2,66.9,29.94,ESE,112,0.0,-999.0,64,-99.99,,,0.00,Acu-Link.com,2013-05-13 16:24:00,
2013-05-13 12:39:00,80.2,66.4,29.94,WNW,292,4.7,-999.0,63,-99.99,,,0.00,Acu-Link.com,2013-05-13 16:39:00,
2013-05-13 12:58:00,82.0,66.7,29.95,SE,135,4.2,-999.0,60,-99.99,,,0.00,Acu-Link.com,2013-05-13 16:58:00,
2013-05-13 13:18:00,84.4,67.0,29.94,WNW,292,0.0,-999.0,56,-99.99,,,0.00,Acu-Link.com,2013-05-13 17:18:00,
2013-05-13 13:35:00,82.9,64.5,29.93,NW,315,4.7,-999.0,54,-99.99,,,0.00,Acu-Link.com,2013-05-13 17:35:00,
2013-05-13 14:04:00,84.6,65.0,29.93,NW,315,2.7,-999.0,52,-99.99,,,0.00,Acu-Link.com,2013-05-13 18:04:00,
2013-05-13 15:14:00,86.2,64.8,29.91,ESE,112,2.2,-999.0,49,-99.99,,,0.00,Acu-Link.com,2013-05-13 19:14:00,
2013-05-13 15:29:00,86.2,64.8,29.90,ENE,67,2.7,-999.0,49,-99.99,,,0.00,Acu-Link.com,2013-05-13 19:29:00,
2013-05-13 15:45:00,84.7,64.0,29.90,North,0,2.7,-999.0,50,-99.99,,,0.00,Acu-Link.com,2013-05-13 19:45:00,
2013-05-13 16:00:00,83.8,63.7,29.90,SE,135,2.2,-999.0,51,-99.99,,,0.00,Acu-Link.com,2013-05-13 20:00:00,
2013-05-13 16:15:00,84.7,63.4,29.90,SSW,202,2.2,-999.0,49,-99.99,,,0.00,Acu-Link.com,2013-05-13 20:15:00,
2013-05-13 16:30:00,82.6,62.0,29.91,East,90,3.2,-999.0,50,-99.99,,,0.00,Acu-Link.com,2013-05-13 20:30:00,
2013-05-13 16:45:00,83.7,62.5,29.90,ESE,112,1.7,-999.0,49,-99.99,,,0.00,Acu-Link.com,2013-05-13 20:45:00,
2013-05-13 17:00:00,81.1,61.2,29.89,ENE,67,3.2,-999.0,51,-99.99,,,0.00,Acu-Link.com,2013-05-13 21:00:00,
2013-05-13 17:16:00,81.0,61.7,29.90,SSE,157,4.2,-999.0,52,-99.99,,,0.00,Acu-Link.com,2013-05-13 21:16:00,
2013-05-13 17:31:00,82.2,61.1,29.89,East,90,0.0,-999.0,49,-99.99,,,0.00,Acu-Link.com,2013-05-13 21:31:00,
2013-05-13 17:46:00,83.7,61.3,29.90,NNW,337,3.7,-999.0,47,-99.99,,,0.00,Acu-Link.com,2013-05-13 21:46:00,
2013-05-13 18:02:00,83.7,61.3,29.89,ESE,112,2.7,-999.0,47,-99.99,,,0.00,Acu-Link.com,2013-05-13 22:02:00,
2013-05-13 18:44:00,82.9,60.6,29.88,WNW,292,3.2,-999.0,47,-99.99,,,0.00,Acu-Link.com,2013-05-13 22:44:00,
2013-05-13 18:59:00,82.9,60.6,29.89,SE,135,3.2,-999.0,47,-99.99,,,0.00,Acu-Link.com,2013-05-13 22:59:00,
2013-05-13 19:14:00,77.5,60.5,29.90,SE,135,3.2,-999.0,56,-99.99,,,0.00,Acu-Link.com,2013-05-13 23:14:00,
2013-05-13 19:30:00,75.2,59.4,29.91,NNE,22,2.2,-999.0,58,-99.99,,,0.00,Acu-Link.com,2013-05-13 23:30:00,
2013-05-13 19:45:00,73.2,58.9,29.90,SSE,157,0.0,-999.0,61,-99.99,,,0.00,Acu-Link.com,2013-05-13 23:45:00,
2013-05-13 20:00:00,72.1,58.8,29.91,SSE,157,1.7,-999.0,63,-99.99,,,0.00,Acu-Link.com,2013-05-14 00:00:00,
2013-05-13 20:15:00,71.1,58.3,29.92,North,0,2.7,-999.0,64,-99.99,,,0.00,Acu-Link.com,2013-05-14 00:15:00,
2013-05-13 20:31:00,70.7,57.5,29.92,NNE,22,0.0,-999.0,63,-99.99,,,0.00,Acu-Link.com,2013-05-14 00:31:00,
2013-05-13 20:46:00,70.3,57.5,29.93,SE,135,1.7,-999.0,64,-99.99,,,0.00,Acu-Link.com,2013-05-14 00:46:00,
2013-05-13 21:01:00,70.0,57.3,29.93,NNE,22,0.0,-999.0,64,-99.99,,,0.00,Acu-Link.com,2013-05-14 01:01:00,
2013-05-13 21:17:00,69.8,57.9,29.94,NE,45,0.0,-999.0,66,-99.99,,,0.00,Acu-Link.com,2013-05-14 01:17:00,
2013-05-13 21:32:00,69.4,55.8,29.94,ESE,112,0.0,-999.0,62,-99.99,,,0.00,Acu-Link.com,2013-05-14 01:32:00,
2013-05-13 21:48:00,68.9,56.2,29.94,West,270,0.0,-999.0,64,-99.99,,,0.00,Acu-Link.com,2013-05-14 01:48:00,
2013-05-13 22:03:00,68.9,55.8,29.96,West,270,1.7,-999.0,63,-99.99,,,0.00,Acu-Link.com,2013-05-14 02:03:00,
2013-05-13 22:18:00,68.7,55.1,29.95,ESE,112,1.7,-999.0,62,-99.99,,,0.00,Acu-Link.com,2013-05-14 02:18:00,
2013-05-13 22:33:00,68.9,54.9,29.95,NE,45,0.0,-999.0,61,-99.99,,,0.00,Acu-Link.com,2013-05-14 02:33:00,
2013-05-13 22:48:00,68.7,55.1,29.97,SSE,157,0.0,-999.0,62,-99.99,,,0.00,Acu-Link.com,2013-05-14 02:48:00,
2013-05-13 23:04:00,68.5,55.0,29.96,ESE,112,0.0,-999.0,62,-99.99,,,0.00,Acu-Link.com,2013-05-14 03:04:00,
2013-05-13 23:19:00,68.2,55.1,29.96,WNW,292,0.0,-999.0,63,-99.99,,,0.00,Acu-Link.com,2013-05-14 03:19:00,
2013-05-13 23:35:00,67.8,54.3,29.96,SSE,157,1.7,-999.0,62,-99.99,,,0.00,Acu-Link.com,2013-05-14 03:35:00,
2013-05-13 23:50:00,67.8,54.3,29.97,SSW,202,0.0,-999.0,62,-99.99,,,0.00,Acu-Link.com,2013-05-14 03:50:00,